Time;durP1;ratioP1;P1;durP2;ratioP2;P2;SDS_P1;SDS_P2;PMS_P1;PMS_P2;Temp;Humidity;BMP_temperature;BMP_pressure;BME280_temperature;BME280_humidity;BME280_pressure;Samples;Min_cycle;Max_cycle;Signal;HPM_P1;HPM_P2
2022/11/29 00:00:46;;;;;;;41.27;29.47;;;6.00;99.90;;;;;;5052943;28;20850;-48
2022/11/29 00:03:13;;;;;;;40.93;29.37;;;5.90;99.90;;;;;;5054423;28;20454;-48
2022/11/29 00:05:41;;;;;;;50.30;29.27;;;5.90;99.90;;;;;;5054455;28;20430;-48
2022/11/29 00:08:07;;;;;;;35.50;28.03;;;6.00;99.90;;;;;;5054217;28;20990;-47
2022/11/29 00:10:36;;;;;;;45.97;29.20;;;5.20;99.90;;;;;;5053392;28;20428;-48
2022/11/29 00:13:03;;;;;;;40.37;26.90;;;5.50;99.90;;;;;;5054450;28;20491;-48
2022/11/29 00:15:29;;;;;;;44.73;29.17;;;6.00;99.90;;;;;;5053963;28;20501;-48
2022/11/29 00:17:56;;;;;;;43.23;28.07;;;5.80;99.90;;;;;;5053965;28;20417;-48
2022/11/29 00:20:22;;;;;;;38.03;26.70;;;6.00;99.90;;;;;;5053204;28;20459;-49
2022/11/29 00:22:51;;;;;;;37.80;29.23;;;5.90;99.90;;;;;;5053642;28;20969;-48
2022/11/29 00:25:17;;;;;;;40.63;28.47;;;6.00;99.90;;;;;;5054099;28;20437;-49
2022/11/29 00:27:44;;;;;;;41.23;29.13;;;5.70;99.90;;;;;;5053733;28;20414;-48
2022/11/29 00:30:12;;;;;;;40.23;29.03;;;5.90;99.90;;;;;;5053108;28;20754;-48
2022/11/29 00:32:39;;;;;;;41.20;28.77;;;5.60;99.90;;;;;;5053497;28;20452;-49
2022/11/29 00:35:06;;;;;;;40.70;28.63;;;6.00;99.90;;;;;;5053533;28;20440;-49
2022/11/29 00:37:32;;;;;;;42.43;29.00;;;5.90;99.90;;;;;;5053447;28;20435;-48
2022/11/29 00:40:00;;;;;;;39.07;28.63;;;5.80;99.90;;;;;;5052786;28;20461;-49
2022/11/29 00:42:27;;;;;;;39.80;27.97;;;5.80;99.90;;;;;;5053337;28;20448;-50
2022/11/29 00:44:53;;;;;;;39.67;27.47;;;6.00;99.90;;;;;;5053303;28;20431;-49
2022/11/29 00:47:20;;;;;;;44.33;28.30;;;6.10;99.90;;;;;;5053312;28;20418;-48
2022/11/29 00:49:46;;;;;;;40.60;28.07;;;5.90;99.90;;;;;;5052451;28;20503;-48
2022/11/29 00:52:13;;;;;;;40.63;28.60;;;6.00;99.90;;;;;;5053494;28;20431;-49
2022/11/29 00:54:40;;;;;;;41.03;30.03;;;5.90;99.90;;;;;;5053491;28;20786;-49
2022/11/29 00:57:07;;;;;;;38.67;28.60;;;5.80;99.90;;;;;;5053051;28;20450;-47
2022/11/29 00:59:34;;;;;;;42.35;29.90;;;5.40;99.90;;;;;;5052227;28;20450;-47
2022/11/29 01:02:01;;;;;;;41.80;29.40;;;5.90;99.90;;;;;;5052860;28;20302;-49
2022/11/29 01:04:27;;;;;;;46.73;31.83;;;5.90;99.90;;;;;;5052934;28;20804;-50
2022/11/29 01:06:54;;;;;;;46.63;29.43;;;5.90;99.90;;;;;;5052967;28;20405;-48
2022/11/29 01:09:20;;;;;;;46.93;29.00;;;5.80;99.90;;;;;;5052342;28;20949;-48
2022/11/29 01:11:49;;;;;;;44.50;30.63;;;5.90;99.90;;;;;;5052122;28;20482;-48
2022/11/29 01:14:17;;;;;;;45.23;30.63;;;5.50;99.90;;;;;;5052634;28;20550;-49
2022/11/29 01:16:43;;;;;;;39.60;27.77;;;5.80;99.90;;;;;;5052717;28;20444;-47
2022/11/29 01:19:10;;;;;;;42.80;29.50;;;5.80;99.90;;;;;;5051872;28;20409;-48
2022/11/29 01:21:37;;;;;;;43.53;28.90;;;5.70;99.90;;;;;;5052740;28;20454;-47
2022/11/29 01:24:04;;;;;;;46.23;29.73;;;6.00;99.90;;;;;;5052538;28;21025;-47
2022/11/29 01:26:31;;;;;;;41.77;30.90;;;5.90;99.90;;;;;;5052564;28;20505;-47
2022/11/29 01:28:59;;;;;;;40.83;31.73;;;5.90;99.90;;;;;;5051723;28;20438;-48
2022/11/29 01:31:29;;;;;;;40.50;29.63;;;5.90;99.90;;;;;;5052334;28;20444;-47
2022/11/29 01:33:56;;;;;;;45.03;29.10;;;5.80;99.90;;;;;;5052356;28;20943;-48
2022/11/29 01:36:23;;;;;;;41.67;31.17;;;5.90;99.90;;;;;;5052376;28;20915;-48
2022/11/29 01:38:50;;;;;;;40.60;28.80;;;6.00;99.90;;;;;;5051866;28;20443;-48
2022/11/29 01:41:18;;;;;;;43.13;30.50;;;5.20;99.90;;;;;;5052178;28;20593;-48
2022/11/29 01:43:59;;;;;;;43.63;30.47;;;5.90;99.90;;;;;;5051317;28;20422;-48
2022/11/29 01:46:28;;;;;;;43.17;28.50;;;5.40;99.90;;;;;;5052385;28;20421;-48
2022/11/29 01:49:00;;;;;;;43.63;30.47;;;6.40;99.90;;;;;;5051541;28;20484;-48
2022/11/29 01:51:28;;;;;;;41.50;29.90;;;5.90;99.90;;;;;;5052092;28;20784;-50
2022/11/29 01:53:55;;;;;;;43.87;29.23;;;6.00;99.90;;;;;;5052219;28;20431;-49
2022/11/29 01:56:22;;;;;;;45.20;29.33;;;5.90;99.90;;;;;;5052109;28;20414;-47
2022/11/29 01:58:49;;;;;;;41.10;31.20;;;5.90;99.90;;;;;;5051309;28;20410;-47
2022/11/29 02:01:16;;;;;;;43.17;30.50;;;5.80;99.90;;;;;;5051846;28;20459;-48
2022/11/29 02:03:44;;;;;;;40.83;28.73;;;6.00;99.90;;;;;;5050753;28;20470;-48
2022/11/29 02:06:10;;;;;;;40.07;27.50;;;5.80;99.90;;;;;;5051968;28;20410;-46
2022/11/29 02:08:39;;;;;;;40.10;28.03;;;6.60;99.90;;;;;;5051253;28;20439;-47
2022/11/29 02:11:35;;;;;;;46.97;30.40;;;5.80;99.90;;;;;;5051807;28;20945;-49
2022/11/29 02:14:15;;;;;;;41.57;29.63;;;5.90;99.90;;;;;;5051997;28;20411;-47
2022/11/29 02:16:51;;;;;;;41.27;29.07;;;5.70;99.90;;;;;;5051841;28;20410;-47
2022/11/29 02:19:35;;;;;;;40.40;30.97;;;6.00;99.90;;;;;;5051043;28;20427;-47
2022/11/29 02:22:07;;;;;;;41.70;30.77;;;5.80;99.90;;;;;;5051816;28;20805;-47
2022/11/29 02:24:50;;;;;;;45.57;30.23;;;5.90;99.90;;;;;;5056701;28;20954;-48
2022/11/29 02:27:38;;;;;;;43.37;30.00;;;5.90;99.90;;;;;;5058363;28;20435;-48
2022/11/29 02:30:38;;;;;;;41.80;29.33;;;6.10;99.90;;;;;;5056340;28;20406;-47
2022/11/29 02:33:38;;;;;;;37.60;29.27;;;5.90;99.90;;;;;;5058254;28;20426;-47
2022/11/29 02:36:32;;;;;;;43.90;30.00;;;6.10;99.90;;;;;;5058315;28;20776;-47
2022/11/29 02:39:47;;;;;;;44.70;32.13;;;5.80;99.90;;;;;;5051076;28;20425;-47
2022/11/29 02:42:47;;;;;;;44.17;29.23;;;6.00;99.90;;;;;;5058348;28;20807;-48
2022/11/29 02:45:25;;;;;;;39.37;28.83;;;5.80;99.90;;;;;;5058850;28;20406;-48
2022/11/29 02:48:00;;;;;;;44.20;30.53;;;6.00;99.90;;;;;;5058478;28;20441;-47
2022/11/29 02:50:39;;;;;;;44.60;29.60;;;6.00;99.90;;;;;;5058016;28;20433;-48
2022/11/29 02:53:13;;;;;;;43.13;30.80;;;6.00;99.90;;;;;;5058747;28;20433;-48
2022/11/29 02:55:46;;;;;;;39.97;29.10;;;5.90;99.90;;;;;;5058587;28;20435;-48
2022/11/29 02:58:20;;;;;;;41.40;30.00;;;5.90;99.90;;;;;;5058527;28;20418;-48
2022/11/29 03:00:56;;;;;;;45.53;31.10;;;5.50;99.90;;;;;;5057559;28;20480;-48
2022/11/29 03:03:27;;;;;;;41.63;30.03;;;6.00;99.90;;;;;;5058131;28;20428;-48
2022/11/29 03:06:04;;;;;;;44.53;30.87;;;6.00;99.90;;;;;;5058365;28;20412;-48
2022/11/29 03:08:37;;;;;;;43.20;29.97;;;5.70;99.90;;;;;;5057527;28;20925;-49
2022/11/29 03:11:11;;;;;;;45.97;30.33;;;5.70;99.90;;;;;;5058031;28;20932;-48
2022/11/29 03:13:50;;;;;;;44.33;30.53;;;6.00;99.90;;;;;;5057959;28;20413;-48
2022/11/29 03:16:28;;;;;;;42.23;30.77;;;6.10;99.90;;;;;;5058174;28;20524;-49
2022/11/29 03:19:03;;;;;;;44.77;31.17;;;6.00;99.90;;;;;;5057339;28;20443;-49
2022/11/29 03:21:44;;;;;;;47.63;30.53;;;6.00;99.90;;;;;;5057880;28;20813;-48
2022/11/29 03:24:19;;;;;;;46.40;31.30;;;6.00;99.90;;;;;;5057822;28;20470;-50
2022/11/29 03:26:51;;;;;;;43.57;30.77;;;5.90;99.90;;;;;;5057926;28;20441;-48
2022/11/29 03:29:26;;;;;;;41.83;29.53;;;6.10;99.90;;;;;;5057248;28;20447;-49
2022/11/29 03:32:01;;;;;;;46.03;32.00;;;6.00;99.90;;;;;;5057744;28;20429;-49
2022/11/29 03:34:42;;;;;;;46.67;30.87;;;5.70;99.90;;;;;;5057337;28;20427;-48
2022/11/29 03:37:17;;;;;;;46.70;31.20;;;5.90;99.90;;;;;;5054315;28;20436;-48
2022/11/29 03:39:51;;;;;;;43.20;31.60;;;6.00;99.90;;;;;;5053904;28;20410;-48
2022/11/29 03:42:25;;;;;;;44.43;30.67;;;6.00;99.90;;;;;;5054316;28;20466;-48
2022/11/29 03:44:59;;;;;;;41.23;30.87;;;5.50;99.90;;;;;;5054669;28;20928;-48
2022/11/29 03:47:30;;;;;;;42.40;29.30;;;6.00;99.90;;;;;;5054493;28;20440;-48
2022/11/29 03:50:02;;;;;;;45.63;30.37;;;5.90;99.90;;;;;;5054016;28;20417;-48
2022/11/29 03:52:35;;;;;;;46.53;30.37;;;6.20;99.90;;;;;;5054325;28;20862;-47
2022/11/29 03:55:14;;;;;;;47.50;32.63;;;6.10;99.90;;;;;;5054335;28;20432;-49
2022/11/29 03:57:50;;;;;;;45.60;31.30;;;6.00;99.90;;;;;;5054337;28;20729;-48
2022/11/29 04:00:18;;;;;;;44.53;30.93;;;6.40;99.90;;;;;;5053759;28;20414;-47
2022/11/29 04:03:25;;;;;;;43.23;30.07;;;6.10;99.90;;;;;;5054118;28;20437;-48
2022/11/29 04:06:19;;;;;;;40.13;29.47;;;6.10;99.90;;;;;;5053974;28;20433;-48
2022/11/29 04:09:15;;;;;;;44.20;31.70;;;6.00;99.90;;;;;;5053247;28;20435;-49
2022/11/29 04:12:15;;;;;;;42.00;30.53;;;5.90;99.90;;;;;;5054007;28;20429;-48
2022/11/29 04:15:23;;;;;;;41.40;31.67;;;6.10;99.90;;;;;;5053993;28;20840;-48
2022/11/29 04:18:19;;;;;;;47.67;30.73;;;6.10;99.90;;;;;;4979747;28;20434;-48
2022/11/29 04:21:30;;;;;;;44.40;30.27;;;6.00;99.90;;;;;;5053275;28;20950;-50
2022/11/29 04:24:33;;;;;;;46.63;30.60;;;6.00;99.90;;;;;;4956645;28;20429;-48
2022/11/29 04:27:26;;;;;;;52.83;32.27;;;5.90;99.90;;;;;;5053926;28;20436;-48
2022/11/29 04:30:05;;;;;;;46.53;31.40;;;6.00;99.90;;;;;;5052905;28;20439;-48
2022/11/29 04:33:01;;;;;;;44.83;31.10;;;6.40;99.90;;;;;;5053623;28;20441;-48
2022/11/29 04:35:41;;;;;;;44.90;30.57;;;6.00;99.90;;;;;;5053841;28;20418;-47
2022/11/29 04:38:29;;;;;;;45.57;31.03;;;5.90;99.90;;;;;;5053559;28;20939;-47
2022/11/29 04:41:14;;;;;;;54.63;30.73;;;5.80;99.90;;;;;;5035526;28;20787;-49
2022/11/29 04:44:11;;;;;;;44.63;31.87;;;5.40;99.90;;;;;;5053882;28;20542;-49
2022/11/29 04:46:53;;;;;;;42.83;29.93;;;5.80;99.90;;;;;;5051963;28;20821;-48
2022/11/29 04:49:35;;;;;;;44.07;30.77;;;6.00;99.90;;;;;;5052724;28;20502;-48
2022/11/29 04:52:21;;;;;;;42.03;29.37;;;5.40;99.90;;;;;;5053231;28;20456;-46
2022/11/29 04:54:56;;;;;;;43.20;31.17;;;6.00;99.90;;;;;;5053424;28;20417;-48
2022/11/29 04:57:30;;;;;;;42.50;29.37;;;5.90;99.90;;;;;;5053174;28;20418;-48
2022/11/29 05:00:07;;;;;;;41.33;29.93;;;5.70;99.90;;;;;;5052278;28;20407;-51
2022/11/29 05:02:39;;;;;;;44.90;30.87;;;5.70;99.90;;;;;;5052780;28;20837;-49
2022/11/29 05:05:18;;;;;;;47.40;32.83;;;6.10;99.90;;;;;;5053042;28;21056;-47
2022/11/29 05:07:59;;;;;;;42.00;31.57;;;6.00;99.90;;;;;;5052954;28;20446;-47
2022/11/29 05:10:38;;;;;;;44.40;32.40;;;6.00;99.90;;;;;;5052441;28;20408;-47
2022/11/29 05:13:14;;;;;;;45.85;30.85;;;6.00;99.90;;;;;;5034757;28;20937;-47
2022/11/29 05:16:06;;;;;;;42.67;29.43;;;6.00;99.90;;;;;;5051551;28;20204;-48
2022/11/29 05:18:57;;;;;;;44.33;29.63;;;5.70;99.90;;;;;;5051737;28;20439;-47
2022/11/29 05:21:30;;;;;;;42.87;31.53;;;6.00;99.90;;;;;;5052472;28;20843;-49
2022/11/29 05:24:17;;;;;;;46.87;30.77;;;6.00;99.90;;;;;;5052668;28;20421;-47
2022/11/29 05:26:49;;;;;;;46.87;32.50;;;5.90;99.90;;;;;;5052716;28;20405;-47
2022/11/29 05:29:25;;;;;;;41.93;28.80;;;5.90;99.90;;;;;;5052023;28;20463;-47
2022/11/29 05:31:58;;;;;;;42.77;29.90;;;6.10;99.90;;;;;;5052347;28;20448;-51
2022/11/29 05:34:42;;;;;;;45.80;31.27;;;6.00;99.90;;;;;;5052776;28;20434;-47
2022/11/29 05:37:21;;;;;;;45.87;31.23;;;6.00;99.90;;;;;;5051698;28;20533;-48
2022/11/29 05:40:01;;;;;;;41.57;30.93;;;6.10;99.90;;;;;;5051153;28;20456;-46
2022/11/29 05:42:43;;;;;;;41.57;29.33;;;6.00;99.90;;;;;;5053059;28;21059;-50
2022/11/29 05:45:17;;;;;;;47.10;31.13;;;6.00;99.90;;;;;;5052762;28;20769;-47
2022/11/29 05:47:52;;;;;;;41.33;31.10;;;6.10;99.90;;;;;;5052589;28;20431;-50
2022/11/29 05:50:26;;;;;;;41.60;30.77;;;6.10;99.90;;;;;;5051382;28;20409;-48
2022/11/29 05:52:57;;;;;;;42.73;30.13;;;5.90;99.90;;;;;;5051854;28;20438;-48
2022/11/29 05:55:36;;;;;;;46.50;31.70;;;6.10;99.90;;;;;;5052084;28;20409;-48
2022/11/29 05:58:11;;;;;;;44.67;31.23;;;6.00;99.90;;;;;;5051394;28;20436;-48
2022/11/29 06:00:47;;;;;;;45.47;30.33;;;6.00;99.90;;;;;;5051329;28;20847;-47
2022/11/29 06:03:21;;;;;;;44.57;30.90;;;5.90;99.90;;;;;;5051901;28;20433;-47
2022/11/29 06:05:51;;;;;;;44.50;30.70;;;6.00;99.90;;;;;;5052001;28;20446;-48
2022/11/29 06:08:26;;;;;;;47.20;31.10;;;5.90;99.90;;;;;;5052023;28;20414;-48
2022/11/29 06:10:57;;;;;;;39.90;29.37;;;5.30;99.90;;;;;;5051986;28;20427;-48
2022/11/29 06:13:36;;;;;;;40.30;30.90;;;6.00;99.90;;;;;;5051631;28;20928;-48
2022/11/29 06:16:42;;;;;;;43.70;29.90;;;5.90;99.90;;;;;;5051744;28;20806;-50
2022/11/29 06:19:32;;;;;;;43.07;30.03;;;6.00;99.90;;;;;;4970047;28;20841;-50
2022/11/29 06:22:10;;;;;;;43.50;30.30;;;6.10;99.90;;;;;;5050049;28;20469;-49
2022/11/29 06:24:55;;;;;;;44.87;28.87;;;6.10;99.90;;;;;;5051028;28;20408;-49
2022/11/29 06:27:41;;;;;;;42.53;31.17;;;5.40;99.90;;;;;;5051279;28;20414;-48
2022/11/29 06:30:13;;;;;;;45.40;32.27;;;6.00;99.90;;;;;;5050888;28;20439;-48
2022/11/29 06:32:49;;;;;;;46.20;30.10;;;5.90;99.90;;;;;;5051006;28;20459;-51
2022/11/29 06:35:33;;;;;;;44.10;30.20;;;5.70;99.90;;;;;;5050926;28;20431;-49
2022/11/29 06:38:08;;;;;;;44.10;31.40;;;5.70;99.90;;;;;;5051359;28;20438;-48
2022/11/29 06:40:35;;;;;;;41.63;29.07;;;5.90;99.90;;;;;;5050882;28;20438;-49
2022/11/29 06:43:02;;;;;;;44.90;28.50;;;5.80;99.90;;;;;;5033115;28;20578;-50
2022/11/29 06:45:29;;;;;;;40.37;29.83;;;5.80;99.90;;;;;;5051018;28;20478;-48
2022/11/29 06:48:02;;;;;;;52.30;32.03;;;5.70;99.90;;;;;;5051778;28;20916;-48
2022/11/29 06:50:36;;;;;;;46.00;30.37;;;6.00;99.90;;;;;;5050015;28;20435;-48
2022/11/29 06:53:15;;;;;;;50.67;31.40;;;5.60;99.90;;;;;;5051184;28;20433;-48
2022/11/29 06:55:49;;;;;;;43.27;30.17;;;5.30;99.90;;;;;;5051397;28;20433;-48
2022/11/29 06:58:32;;;;;;;41.63;29.53;;;5.70;99.90;;;;;;5051097;28;20431;-50
2022/11/29 07:01:05;;;;;;;46.47;31.70;;;5.70;99.90;;;;;;5051116;28;20899;-49
2022/11/29 07:03:46;;;;;;;40.90;29.27;;;5.70;99.90;;;;;;5051006;28;20408;-49
2022/11/29 07:06:18;;;;;;;44.10;30.50;;;5.20;99.90;;;;;;5049962;28;20504;-49
2022/11/29 07:08:47;;;;;;;44.77;30.90;;;5.70;99.90;;;;;;5050284;28;20427;-49
2022/11/29 07:11:14;;;;;;;45.20;31.67;;;5.20;99.90;;;;;;5052284;28;20864;-48
2022/11/29 07:13:41;;;;;;;40.83;31.03;;;5.60;99.90;;;;;;5054612;28;20437;-49
2022/11/29 07:16:17;;;;;;;40.60;28.83;;;5.80;99.90;;;;;;5053274;28;20455;-49
2022/11/29 07:18:52;;;;;;;46.47;30.80;;;5.70;99.90;;;;;;5052813;28;20421;-48
2022/11/29 07:21:25;;;;;;;43.93;30.30;;;5.60;99.90;;;;;;5054678;28;20454;-49
2022/11/29 07:24:02;;;;;;;41.40;29.97;;;5.60;99.90;;;;;;5054733;28;20440;-49
2022/11/29 07:26:34;;;;;;;41.43;30.37;;;6.10;99.90;;;;;;5054483;28;20436;-52
2022/11/29 07:29:17;;;;;;;43.63;31.00;;;5.90;99.90;;;;;;5053917;28;20414;-48
2022/11/29 07:31:51;;;;;;;47.00;29.37;;;5.60;99.90;;;;;;5055160;28;20450;-50
2022/11/29 07:34:28;;;;;;;47.83;30.20;;;5.90;99.90;;;;;;5054379;28;20797;-50
2022/11/29 07:37:01;;;;;;;40.50;29.07;;;6.20;99.90;;;;;;5054349;28;20415;-49
2022/11/29 07:39:39;;;;;;;40.50;27.87;;;6.00;99.90;;;;;;5053752;28;20809;-48
2022/11/29 07:42:15;;;;;;;46.45;30.60;;;6.20;99.90;;;;;;5053835;28;20457;-48
2022/11/29 07:44:48;;;;;;;41.67;30.80;;;6.10;99.90;;;;;;5054372;28;20196;-48
2022/11/29 07:47:15;;;;;;;45.13;30.97;;;6.10;99.90;;;;;;5054434;28;20443;-48
2022/11/29 07:49:43;;;;;;;47.27;29.97;;;6.10;99.90;;;;;;5053411;28;20399;-48
2022/11/29 07:52:11;;;;;;;40.90;29.73;;;6.00;99.90;;;;;;5052368;28;20449;-51
2022/11/29 07:54:39;;;;;;;42.40;29.40;;;6.00;99.90;;;;;;5053689;28;20427;-48
2022/11/29 07:57:06;;;;;;;42.57;30.20;;;5.70;99.90;;;;;;5054160;28;20413;-48
2022/11/29 07:59:33;;;;;;;42.03;29.13;;;5.90;99.90;;;;;;5053463;28;20432;-48
2022/11/29 08:01:59;;;;;;;39.00;29.87;;;6.00;99.90;;;;;;5053792;28;20872;-50
2022/11/29 08:04:26;;;;;;;43.80;29.50;;;6.40;99.90;;;;;;5053756;28;20515;-49
2022/11/29 08:06:54;;;;;;;45.97;30.43;;;6.00;99.90;;;;;;5054070;28;20440;-48
2022/11/29 08:09:20;;;;;;;41.90;28.10;;;5.90;99.90;;;;;;5053170;28;20435;-48
2022/11/29 08:11:47;;;;;;;40.87;28.87;;;5.90;99.90;;;;;;5053504;28;20434;-48
2022/11/29 08:14:14;;;;;;;45.43;29.50;;;6.10;99.90;;;;;;5053692;28;20948;-49
2022/11/29 08:16:40;;;;;;;38.03;26.67;;;5.80;99.90;;;;;;5054017;28;20916;-48
2022/11/29 08:19:07;;;;;;;38.30;28.70;;;6.30;99.90;;;;;;5053456;28;20410;-48
2022/11/29 08:21:34;;;;;;;45.87;30.20;;;6.40;99.90;;;;;;5053011;28;20545;-49
2022/11/29 08:24:03;;;;;;;42.83;28.80;;;6.40;99.90;;;;;;5054204;28;20944;-48
2022/11/29 08:26:29;;;;;;;44.00;28.90;;;6.20;99.90;;;;;;5054520;28;20444;-48
2022/11/29 08:28:56;;;;;;;44.47;29.87;;;6.10;99.90;;;;;;5053739;28;20412;-50
2022/11/29 08:31:23;;;;;;;44.67;33.63;;;6.30;99.90;;;;;;5053127;28;20524;-50
2022/11/29 08:33:49;;;;;;;41.03;28.60;;;7.00;99.90;;;;;;5054400;28;20436;-49
2022/11/29 08:36:18;;;;;;;46.73;30.70;;;6.60;99.90;;;;;;5053553;28;20469;-47
2022/11/29 08:38:45;;;;;;;40.90;29.93;;;6.50;99.90;;;;;;5052470;28;20444;-48
2022/11/29 08:41:15;;;;;;;40.30;28.70;;;6.60;99.90;;;;;;5052903;28;20408;-48
2022/11/29 08:43:42;;;;;;;42.50;27.93;;;6.70;99.90;;;;;;5053044;28;20551;-49
2022/11/29 08:46:09;;;;;;;41.70;27.80;;;6.90;99.90;;;;;;5051991;28;20448;-50
2022/11/29 08:48:36;;;;;;;45.13;29.67;;;6.60;99.90;;;;;;5052343;28;20437;-48
2022/11/29 08:51:04;;;;;;;45.28;31.48;;;6.60;99.90;;;;;;5052188;28;20421;-51
2022/11/29 08:53:42;;;;;;;41.40;30.50;;;7.20;99.90;;;;;;5051552;28;20207;-52
2022/11/29 08:56:10;;;;;;;38.03;27.80;;;7.00;99.90;;;;;;5051504;28;20430;-49
2022/11/29 08:58:39;;;;;;;45.50;28.60;;;6.90;99.90;;;;;;5052488;28;20403;-51
2022/11/29 09:01:11;;;;;;;58.00;30.93;;;6.70;99.90;;;;;;5052923;28;20429;-49
2022/11/29 09:06:23;;;;;;;41.07;29.70;;;7.30;99.90;;;;;;5052695;28;20208;-51
2022/11/29 09:08:49;;;;;;;41.60;29.83;;;7.70;99.90;;;;;;5051803;28;20427;-49
2022/11/29 09:11:18;;;;;;;44.90;29.50;;;7.40;99.90;;;;;;5052466;28;20438;-47
2022/11/29 09:13:49;;;;;;;38.73;29.97;;;7.10;99.90;;;;;;5052806;28;20415;-51
2022/11/29 09:16:18;;;;;;;44.23;30.53;;;7.10;99.90;;;;;;5052354;28;20858;-48
2022/11/29 09:18:47;;;;;;;46.30;33.80;;;7.20;99.90;;;;;;5051838;28;20910;-49
2022/11/29 09:21:15;;;;;;;42.90;29.17;;;7.10;99.90;;;;;;5052086;28;20792;-48
2022/11/29 09:23:44;;;;;;;36.30;27.90;;;7.20;99.90;;;;;;5052096;28;20462;-49
2022/11/29 09:26:16;;;;;;;40.60;28.60;;;7.00;99.90;;;;;;5052166;28;20411;-50
2022/11/29 09:28:43;;;;;;;40.40;27.60;;;6.80;99.90;;;;;;5051417;28;20942;-49
2022/11/29 09:31:13;;;;;;;45.57;29.20;;;6.70;99.90;;;;;;5051947;28;20440;-49
2022/11/29 09:33:40;;;;;;;38.20;28.57;;;7.20;99.90;;;;;;5051487;28;20434;-48
2022/11/29 09:36:08;;;;;;;36.80;27.70;;;7.30;99.90;;;;;;5050644;28;20459;-48
2022/11/29 09:38:35;;;;;;;41.88;31.33;;;7.40;99.90;;;;;;5051174;28;20812;-48
2022/11/29 09:41:12;;;;;;;46.00;31.97;;;7.20;99.90;;;;;;5051141;28;20682;-51
2022/11/29 09:43:45;;;;;;;38.90;30.40;;;7.60;99.90;;;;;;5051341;28;20800;-48
2022/11/29 09:46:21;;;;;;;36.40;28.50;;;7.50;99.90;;;;;;5051791;28;20201;-48
2022/11/29 09:49:06;;;;;;;39.70;31.33;;;7.30;99.90;;;;;;5049076;28;20957;-50
2022/11/29 09:51:41;;;;;;;37.97;29.43;;;7.80;99.90;;;;;;5051922;28;20223;-48
2022/11/29 09:54:21;;;;;;;42.80;29.40;;;7.40;99.90;;;;;;5052257;28;20408;-48
2022/11/29 09:56:51;;;;;;;42.37;29.13;;;7.60;99.90;;;;;;5051773;28;20408;-48
2022/11/29 09:59:23;;;;;;;38.67;29.00;;;7.50;99.90;;;;;;5051142;28;20414;-50
2022/11/29 10:01:58;;;;;;;40.33;30.33;;;6.90;99.90;;;;;;5051257;28;20462;-48
2022/11/29 10:04:29;;;;;;;40.43;29.50;;;7.90;99.90;;;;;;5050611;28;20412;-49
2022/11/29 10:07:01;;;;;;;44.03;30.33;;;7.70;99.90;;;;;;5051677;28;20452;-47
2022/11/29 10:09:33;;;;;;;43.65;31.17;;;7.50;99.90;;;;;;5050341;28;20942;-48
2022/11/29 10:12:10;;;;;;;43.43;29.87;;;7.70;99.90;;;;;;5050883;28;20687;-48
2022/11/29 10:14:43;;;;;;;40.13;28.30;;;7.60;99.90;;;;;;5069274;28;20513;-50
2022/11/29 10:17:19;;;;;;;40.07;28.10;;;7.30;99.90;;;;;;5071409;28;20422;-48
2022/11/29 10:19:50;;;;;;;39.33;27.77;;;7.50;99.90;;;;;;5066743;28;20422;-48
2022/11/29 10:22:23;;;;;;;39.30;27.90;;;7.70;99.90;;;;;;5071062;28;20978;-50
2022/11/29 10:24:57;;;;;;;46.27;30.57;;;7.60;99.90;;;;;;5071360;28;20448;-50
2022/11/29 10:27:27;;;;;;;44.80;30.03;;;7.60;99.90;;;;;;5071565;28;20422;-49
2022/11/29 10:29:54;;;;;;;40.63;29.23;;;7.40;99.90;;;;;;5070465;28;20423;-48
2022/11/29 10:32:25;;;;;;;44.30;31.20;;;7.40;99.90;;;;;;5071274;28;20432;-49
2022/11/29 10:34:51;;;;;;;44.47;29.83;;;7.40;99.90;;;;;;5053430;28;20434;-48
2022/11/29 10:37:20;;;;;;;36.43;27.37;;;7.60;99.90;;;;;;5070958;28;20442;-47
2022/11/29 10:39:48;;;;;;;45.47;30.90;;;6.80;99.90;;;;;;5052697;28;20982;-47
2022/11/29 10:45:04;;;;;;;42.87;29.03;;;7.60;99.90;;;;;;5072427;28;20422;-50
2022/11/29 10:47:32;;;;;;;45.53;29.20;;;7.40;99.90;;;;;;5079315;28;20417;-50
2022/11/29 10:49:59;;;;;;;38.33;28.60;;;7.60;99.90;;;;;;5064630;28;20445;-49
2022/11/29 10:52:26;;;;;;;40.90;28.90;;;7.50;99.90;;;;;;5079398;28;20450;-50
2022/11/29 10:54:56;;;;;;;42.00;28.33;;;7.50;99.90;;;;;;5075090;28;20429;-48
2022/11/29 10:57:23;;;;;;;43.10;29.20;;;7.30;99.90;;;;;;5094902;28;20424;-50
2022/11/29 11:00:01;;;;;;;45.17;28.13;;;7.50;99.90;;;;;;5094241;28;20437;-50
2022/11/29 11:02:28;;;;;;;40.10;29.23;;;7.50;99.90;;;;;;5094346;28;20434;-49
2022/11/29 11:04:56;;;;;;;40.73;29.30;;;7.00;99.90;;;;;;5094726;28;20517;-49
2022/11/29 11:07:27;;;;;;;42.53;29.90;;;7.40;99.90;;;;;;5080092;28;20420;-50
2022/11/29 11:09:56;;;;;;;49.13;34.20;;;7.30;99.90;;;;;;5073879;28;20407;-49
2022/11/29 11:12:27;;;;;;;63.80;48.83;;;7.30;99.90;;;;;;5073795;28;20463;-49
2022/11/29 11:15:14;;;;;;;44.60;30.53;;;7.20;99.90;;;;;;5074290;28;20414;-51
2022/11/29 11:17:55;;;;;;;47.07;31.90;;;7.30;99.90;;;;;;5082562;28;20475;-49
2022/11/29 11:20:25;;;;;;;38.60;28.50;;;7.30;99.90;;;;;;5093767;28;20609;-49
2022/11/29 11:22:58;;;;;;;45.57;30.13;;;7.60;99.90;;;;;;5074317;28;20459;-50
2022/11/29 11:25:28;;;;;;;42.40;32.17;;;7.70;99.90;;;;;;5073089;28;20433;-49
2022/11/29 11:27:56;;;;;;;47.17;30.47;;;7.50;99.90;;;;;;5073318;28;20457;-49
2022/11/29 11:30:24;;;;;;;49.80;31.57;;;7.50;99.90;;;;;;5072563;28;20525;-49
2022/11/29 11:33:08;;;;;;;44.23;31.23;;;7.20;99.90;;;;;;5073682;28;20428;-48
2022/11/29 11:35:36;;;;;;;48.72;31.92;;;7.50;99.90;;;;;;5055627;28;20434;-50
2022/11/29 11:38:02;;;;;;;46.50;32.03;;;7.50;99.90;;;;;;5055777;28;20198;-50
2022/11/29 11:40:30;;;;;;;45.23;30.17;;;7.40;99.90;;;;;;5073197;28;20438;-49
2022/11/29 11:42:59;;;;;;;48.37;30.27;;;7.40;99.90;;;;;;5073918;28;20489;-51
2022/11/29 11:45:31;;;;;;;48.13;32.20;;;7.60;99.90;;;;;;5073879;28;20795;-50
2022/11/29 11:47:59;;;;;;;46.33;31.43;;;7.60;99.90;;;;;;5073784;28;20445;-50
2022/11/29 11:50:32;;;;;;;51.37;30.90;;;7.60;99.90;;;;;;5072846;28;20404;-49
2022/11/29 11:53:04;;;;;;;48.50;31.67;;;7.50;99.90;;;;;;5072957;28;20558;-49
2022/11/29 11:55:35;;;;;;;48.07;33.20;;;6.80;99.90;;;;;;5071601;28;20495;-50
2022/11/29 11:58:17;;;;;;;52.93;42.00;;;7.40;99.90;;;;;;5070628;28;20416;-51
2022/11/29 12:00:48;;;;;;;63.83;50.07;;;7.40;99.90;;;;;;5070500;28;20433;-48
2022/11/29 12:03:34;;;;;;;56.70;33.50;;;7.70;99.90;;;;;;5071265;28;20455;-49
2022/11/29 12:06:26;;;;;;;46.93;32.70;;;7.60;99.90;;;;;;5071568;28;20404;-51
2022/11/29 12:08:59;;;;;;;41.10;29.27;;;7.70;99.90;;;;;;5071671;28;20412;-50
2022/11/29 12:11:29;;;;;;;41.60;30.53;;;7.80;99.90;;;;;;5055430;28;20444;-50
2022/11/29 12:13:58;;;;;;;45.20;32.90;;;7.00;99.90;;;;;;5073388;28;20507;-49
2022/11/29 12:16:28;;;;;;;46.40;31.50;;;7.70;99.90;;;;;;5073313;28;20415;-48
2022/11/29 12:19:01;;;;;;;42.10;30.90;;;7.80;99.90;;;;;;5072537;28;20482;-50
2022/11/29 12:21:33;;;;;;;47.83;32.80;;;8.00;99.90;;;;;;5073113;28;20784;-48
2022/11/29 12:24:11;;;;;;;46.43;33.13;;;7.70;99.90;;;;;;5073173;28;20563;-49
2022/11/29 12:26:40;;;;;;;44.33;33.47;;;7.80;99.90;;;;;;5073035;28;20443;-49
2022/11/29 12:29:12;;;;;;;47.67;32.40;;;7.90;99.90;;;;;;5072297;28;20411;-50
2022/11/29 12:31:53;;;;;;;46.13;31.73;;;7.60;99.90;;;;;;5072937;28;20459;-50
2022/11/29 12:34:34;;;;;;;48.70;33.10;;;7.60;99.90;;;;;;5054661;28;20466;-51
2022/11/29 12:37:10;;;;;;;46.40;33.37;;;7.50;99.90;;;;;;5072950;28;20504;-50
2022/11/29 12:39:49;;;;;;;43.30;32.53;;;7.50;99.90;;;;;;5072178;28;20423;-51
2022/11/29 12:42:31;;;;;;;49.43;33.17;;;7.50;99.90;;;;;;5072522;28;20508;-50
2022/11/29 12:45:03;;;;;;;45.50;34.23;;;7.30;99.90;;;;;;5072506;28;20462;-51
2022/11/29 12:47:41;;;;;;;49.97;33.90;;;7.60;99.90;;;;;;5072453;28;20407;-50
2022/11/29 12:50:19;;;;;;;45.90;32.93;;;7.50;99.90;;;;;;5071570;28;20418;-52
2022/11/29 12:52:56;;;;;;;55.57;34.90;;;7.60;99.90;;;;;;5054093;28;20496;-50
2022/11/29 12:55:29;;;;;;;45.90;35.03;;;7.70;99.90;;;;;;5072564;28;20418;-50
2022/11/29 12:58:06;;;;;;;51.33;33.23;;;7.70;99.90;;;;;;5072210;28;20506;-50
2022/11/29 13:00:40;;;;;;;48.70;35.33;;;7.30;99.90;;;;;;5071218;28;20429;-49
2022/11/29 13:03:20;;;;;;;50.70;34.30;;;7.70;99.90;;;;;;5071865;28;20219;-49
2022/11/29 13:06:00;;;;;;;44.43;32.83;;;7.80;99.90;;;;;;5072529;28;20440;-49
2022/11/29 13:08:54;;;;;;;50.40;33.40;;;7.70;99.90;;;;;;5071534;28;20499;-50
2022/11/29 13:11:25;;;;;;;48.13;31.73;;;7.80;99.90;;;;;;5061977;28;20439;-50
2022/11/29 13:13:59;;;;;;;51.40;33.30;;;7.80;99.90;;;;;;5072064;28;20499;-51
2022/11/29 13:16:36;;;;;;;46.58;35.67;;;7.70;99.90;;;;;;5070380;28;20433;-49